sensor_id;sensor_type;location;lat;lon;timestamp;temperature;humidity
44823;DHT22;51097;51.984;5.650;2024-03-23T00:54:37;11.70;99.90
44823;DHT22;51097;51.984;5.650;2024-03-23T00:57:03;11.60;99.90
44823;DHT22;51097;51.984;5.650;2024-03-23T00:59:28;11.50;99.90
44823;DHT22;51097;51.984;5.650;2024-03-23T01:01:54;11.50;99.90
44823;DHT22;51097;51.984;5.650;2024-03-23T01:04:20;11.50;99.90
44823;DHT22;51097;51.984;5.650;2024-03-23T01:06:46;11.50;99.90
44823;DHT22;51097;51.984;5.650;2024-03-23T01:09:12;11.50;99.90
44823;DHT22;51097;51.984;5.650;2024-03-23T01:11:38;11.40;99.90
44823;DHT22;51097;51.984;5.650;2024-03-23T01:14:05;11.50;99.90
44823;DHT22;51097;51.984;5.650;2024-03-23T01:16:31;11.50;99.90
44823;DHT22;51097;51.984;5.650;2024-03-23T01:18:57;11.40;99.90
44823;DHT22;51097;51.984;5.650;2024-03-23T01:21:22;11.50;99.90
44823;DHT22;51097;51.984;5.650;2024-03-23T01:23:48;11.40;99.90
44823;DHT22;51097;51.984;5.650;2024-03-23T01:26:14;11.40;99.90
44823;DHT22;51097;51.984;5.650;2024-03-23T01:28:40;11.40;99.90
44823;DHT22;51097;51.984;5.650;2024-03-23T01:31:05;11.40;99.90
44823;DHT22;51097;51.984;5.650;2024-03-23T01:33:31;11.40;99.90
44823;DHT22;51097;51.984;5.650;2024-03-23T01:35:56;11.40;99.90
44823;DHT22;51097;51.984;5.650;2024-03-23T01:38:22;11.30;99.90
44823;DHT22;51097;51.984;5.650;2024-03-23T01:40:48;11.40;99.90
44823;DHT22;51097;51.984;5.650;2024-03-23T01:43:13;11.30;99.90
44823;DHT22;51097;51.984;5.650;2024-03-23T01:45:39;11.40;99.90
44823;DHT22;51097;51.984;5.650;2024-03-23T01:48:05;11.40;99.90
44823;DHT22;51097;51.984;5.650;2024-03-23T01:50:31;11.50;99.90
44823;DHT22;51097;51.984;5.650;2024-03-23T01:53:04;11.30;99.90
44823;DHT22;51097;51.984;5.650;2024-03-23T01:55:32;11.40;99.90
44823;DHT22;51097;51.984;5.650;2024-03-23T01:57:58;11.40;99.90
44823;DHT22;51097;51.984;5.650;2024-03-23T02:00:23;11.60;99.90
44823;DHT22;51097;51.984;5.650;2024-03-23T02:02:49;11.50;99.90
44823;DHT22;51097;51.984;5.650;2024-03-23T02:05:14;11.40;99.90
44823;DHT22;51097;51.984;5.650;2024-03-23T02:07:41;11.50;99.90
44823;DHT22;51097;51.984;5.650;2024-03-23T02:10:09;11.40;99.90
44823;DHT22;51097;51.984;5.650;2024-03-23T02:12:40;11.40;99.90
44823;DHT22;51097;51.984;5.650;2024-03-23T02:15:06;11.40;99.90
44823;DHT22;51097;51.984;5.650;2024-03-23T02:17:34;11.40;99.90
44823;DHT22;51097;51.984;5.650;2024-03-23T02:20:01;11.60;99.90
44823;DHT22;51097;51.984;5.650;2024-03-23T02:22:36;11.40;99.90
44823;DHT22;51097;51.984;5.650;2024-03-23T02:25:04;11.50;99.90
44823;DHT22;51097;51.984;5.650;2024-03-23T02:27:29;11.40;99.90
44823;DHT22;51097;51.984;5.650;2024-03-23T02:29:55;11.40;99.90
44823;DHT22;51097;51.984;5.650;2024-03-23T02:32:20;11.40;99.90
44823;DHT22;51097;51.984;5.650;2024-03-23T02:34:46;11.40;99.90
44823;DHT22;51097;51.984;5.650;2024-03-23T02:37:12;11.20;99.90
44823;DHT22;51097;51.984;5.650;2024-03-23T02:39:37;11.30;99.90
44823;DHT22;51097;51.984;5.650;2024-03-23T02:42:03;11.10;99.90
44823;DHT22;51097;51.984;5.650;2024-03-23T02:44:29;11.10;99.90
44823;DHT22;51097;51.984;5.650;2024-03-23T02:46:54;11.10;99.90
44823;DHT22;51097;51.984;5.650;2024-03-23T02:49:20;11.10;99.90
44823;DHT22;51097;51.984;5.650;2024-03-23T02:51:46;10.90;99.90
44823;DHT22;51097;51.984;5.650;2024-03-23T02:54:13;10.90;99.90
44823;DHT22;51097;51.984;5.650;2024-03-23T02:56:39;10.80;99.90
44823;DHT22;51097;51.984;5.650;2024-03-23T02:59:05;10.80;99.90
44823;DHT22;51097;51.984;5.650;2024-03-23T03:01:30;10.80;99.90
44823;DHT22;51097;51.984;5.650;2024-03-23T03:03:56;10.70;99.90
44823;DHT22;51097;51.984;5.650;2024-03-23T03:06:25;10.70;99.90
44823;DHT22;51097;51.984;5.650;2024-03-23T03:08:50;10.70;99.90
44823;DHT22;51097;51.984;5.650;2024-03-23T03:11:16;10.60;99.90
44823;DHT22;51097;51.984;5.650;2024-03-23T03:13:42;10.50;99.90
44823;DHT22;51097;51.984;5.650;2024-03-23T03:16:10;10.50;99.90
44823;DHT22;51097;51.984;5.650;2024-03-23T03:18:36;10.40;99.90
44823;DHT22;51097;51.984;5.650;2024-03-23T03:21:03;10.40;99.90
44823;DHT22;51097;51.984;5.650;2024-03-23T03:23:30;10.40;99.90
44823;DHT22;51097;51.984;5.650;2024-03-23T03:25:56;10.30;99.90
44823;DHT22;51097;51.984;5.650;2024-03-23T03:28:22;10.30;99.90
44823;DHT22;51097;51.984;5.650;2024-03-23T03:30:48;10.30;99.90
44823;DHT22;51097;51.984;5.650;2024-03-23T03:33:13;10.20;99.90
44823;DHT22;51097;51.984;5.650;2024-03-23T03:35:39;10.20;99.90
44823;DHT22;51097;51.984;5.650;2024-03-23T03:38:04;10.20;99.90
44823;DHT22;51097;51.984;5.650;2024-03-23T03:40:30;10.20;99.90
44823;DHT22;51097;51.984;5.650;2024-03-23T03:42:55;10.20;99.90
44823;DHT22;51097;51.984;5.650;2024-03-23T03:45:21;10.20;99.90
44823;DHT22;51097;51.984;5.650;2024-03-23T03:47:47;10.20;99.90
44823;DHT22;51097;51.984;5.650;2024-03-23T03:50:12;10.20;99.90
44823;DHT22;51097;51.984;5.650;2024-03-23T03:52:38;10.00;99.90
44823;DHT22;51097;51.984;5.650;2024-03-23T03:55:04;10.00;99.90
44823;DHT22;51097;51.984;5.650;2024-03-23T03:57:36;10.00;99.90
44823;DHT22;51097;51.984;5.650;2024-03-23T04:00:02;10.00;99.90
44823;DHT22;51097;51.984;5.650;2024-03-23T04:02:28;9.90;99.90
44823;DHT22;51097;51.984;5.650;2024-03-23T04:04:54;9.80;99.90
44823;DHT22;51097;51.984;5.650;2024-03-23T04:07:19;9.80;99.90
44823;DHT22;51097;51.984;5.650;2024-03-23T04:09:48;9.80;99.90
44823;DHT22;51097;51.984;5.650;2024-03-23T04:12:14;9.70;99.90
44823;DHT22;51097;51.984;5.650;2024-03-23T04:14:39;9.70;99.90
44823;DHT22;51097;51.984;5.650;2024-03-23T04:17:05;9.60;99.90
44823;DHT22;51097;51.984;5.650;2024-03-23T04:19:30;9.70;99.90
44823;DHT22;51097;51.984;5.650;2024-03-23T04:21:56;9.60;99.90
44823;DHT22;51097;51.984;5.650;2024-03-23T04:24:21;9.70;99.90
44823;DHT22;51097;51.984;5.650;2024-03-23T04:26:48;9.50;99.90
44823;DHT22;51097;51.984;5.650;2024-03-23T04:29:13;9.40;99.90
44823;DHT22;51097;51.984;5.650;2024-03-23T04:31:39;9.20;99.90
44823;DHT22;51097;51.984;5.650;2024-03-23T04:34:04;9.30;99.90
44823;DHT22;51097;51.984;5.650;2024-03-23T04:36:30;9.20;99.90
44823;DHT22;51097;51.984;5.650;2024-03-23T04:38:59;9.20;99.90
44823;DHT22;51097;51.984;5.650;2024-03-23T04:41:25;9.10;99.90
44823;DHT22;51097;51.984;5.650;2024-03-23T04:43:51;9.20;99.90
44823;DHT22;51097;51.984;5.650;2024-03-23T04:46:17;9.10;99.90
44823;DHT22;51097;51.984;5.650;2024-03-23T04:48:42;9.00;99.90
44823;DHT22;51097;51.984;5.650;2024-03-23T04:51:10;9.00;99.90
44823;DHT22;51097;51.984;5.650;2024-03-23T04:53:38;9.00;99.90
44823;DHT22;51097;51.984;5.650;2024-03-23T04:56:03;9.00;99.90
44823;DHT22;51097;51.984;5.650;2024-03-23T04:58:29;8.90;99.90
44823;DHT22;51097;51.984;5.650;2024-03-23T05:00:56;8.90;99.90
44823;DHT22;51097;51.984;5.650;2024-03-23T05:03:22;8.90;99.90
44823;DHT22;51097;51.984;5.650;2024-03-23T05:05:50;8.90;99.90
44823;DHT22;51097;51.984;5.650;2024-03-23T05:08:16;8.80;99.90
44823;DHT22;51097;51.984;5.650;2024-03-23T05:10:42;8.80;99.90
44823;DHT22;51097;51.984;5.650;2024-03-23T05:13:08;8.70;99.90
44823;DHT22;51097;51.984;5.650;2024-03-23T05:15:34;8.70;99.90
44823;DHT22;51097;51.984;5.650;2024-03-23T05:17:59;8.60;99.90
44823;DHT22;51097;51.984;5.650;2024-03-23T05:20:25;8.60;99.90
44823;DHT22;51097;51.984;5.650;2024-03-23T05:22:50;8.60;99.90
44823;DHT22;51097;51.984;5.650;2024-03-23T05:25:16;8.60;99.90
44823;DHT22;51097;51.984;5.650;2024-03-23T05:27:41;8.50;99.90
44823;DHT22;51097;51.984;5.650;2024-03-23T05:30:07;8.50;99.90
44823;DHT22;51097;51.984;5.650;2024-03-23T05:32:34;8.40;99.90
44823;DHT22;51097;51.984;5.650;2024-03-23T05:35:00;8.40;99.90
44823;DHT22;51097;51.984;5.650;2024-03-23T05:37:25;8.40;99.90
44823;DHT22;51097;51.984;5.650;2024-03-23T05:39:51;8.40;99.90
44823;DHT22;51097;51.984;5.650;2024-03-23T05:42:17;8.40;99.90
44823;DHT22;51097;51.984;5.650;2024-03-23T05:44:46;8.30;99.90
44823;DHT22;51097;51.984;5.650;2024-03-23T05:47:12;8.40;99.90
44823;DHT22;51097;51.984;5.650;2024-03-23T05:49:42;8.50;99.90
44823;DHT22;51097;51.984;5.650;2024-03-23T05:52:11;8.40;99.90
44823;DHT22;51097;51.984;5.650;2024-03-23T05:54:37;8.40;99.90
44823;DHT22;51097;51.984;5.650;2024-03-23T05:57:03;8.40;99.90
44823;DHT22;51097;51.984;5.650;2024-03-23T05:59:28;8.40;99.90
44823;DHT22;51097;51.984;5.650;2024-03-23T06:01:54;8.30;99.90
44823;DHT22;51097;51.984;5.650;2024-03-23T06:04:20;8.50;99.90
44823;DHT22;51097;51.984;5.650;2024-03-23T06:06:46;8.40;99.90
44823;DHT22;51097;51.984;5.650;2024-03-23T06:09:12;8.40;99.90
44823;DHT22;51097;51.984;5.650;2024-03-23T06:11:38;8.40;99.90
44823;DHT22;51097;51.984;5.650;2024-03-23T06:14:03;8.50;99.90
44823;DHT22;51097;51.984;5.650;2024-03-23T06:16:29;8.50;99.90
44823;DHT22;51097;51.984;5.650;2024-03-23T06:18:56;8.60;99.90
44823;DHT22;51097;51.984;5.650;2024-03-23T06:21:21;8.70;99.90
44823;DHT22;51097;51.984;5.650;2024-03-23T06:23:51;8.70;99.90
44823;DHT22;51097;51.984;5.650;2024-03-23T06:26:21;8.80;99.90
44823;DHT22;51097;51.984;5.650;2024-03-23T06:28:47;8.80;99.90
44823;DHT22;51097;51.984;5.650;2024-03-23T06:31:13;8.90;99.90
44823;DHT22;51097;51.984;5.650;2024-03-23T06:33:39;8.90;99.90
44823;DHT22;51097;51.984;5.650;2024-03-23T06:36:07;8.90;99.90
44823;DHT22;51097;51.984;5.650;2024-03-23T06:38:33;9.00;99.90
44823;DHT22;51097;51.984;5.650;2024-03-23T06:41:02;9.10;99.90
44823;DHT22;51097;51.984;5.650;2024-03-23T06:43:28;9.10;99.90
44823;DHT22;51097;51.984;5.650;2024-03-23T06:45:54;9.30;99.90
44823;DHT22;51097;51.984;5.650;2024-03-23T06:48:20;9.30;99.90
44823;DHT22;51097;51.984;5.650;2024-03-23T06:50:46;9.30;99.90
44823;DHT22;51097;51.984;5.650;2024-03-23T06:53:13;9.40;99.90
44823;DHT22;51097;51.984;5.650;2024-03-23T06:55:38;9.40;99.90
44823;DHT22;51097;51.984;5.650;2024-03-23T06:58:04;9.40;99.90
44823;DHT22;51097;51.984;5.650;2024-03-23T07:00:30;9.50;99.90
44823;DHT22;51097;51.984;5.650;2024-03-23T07:02:56;9.40;99.90
44823;DHT22;51097;51.984;5.650;2024-03-23T07:05:21;9.40;99.90
44823;DHT22;51097;51.984;5.650;2024-03-23T07:07:47;9.40;99.90
44823;DHT22;51097;51.984;5.650;2024-03-23T07:10:12;9.40;99.90
44823;DHT22;51097;51.984;5.650;2024-03-23T07:12:38;9.40;99.90
44823;DHT22;51097;51.984;5.650;2024-03-23T07:15:04;9.40;99.90
44823;DHT22;51097;51.984;5.650;2024-03-23T07:17:30;9.60;99.90
44823;DHT22;51097;51.984;5.650;2024-03-23T07:19:55;9.60;99.90
44823;DHT22;51097;51.984;5.650;2024-03-23T07:22:21;9.70;99.90
44823;DHT22;51097;51.984;5.650;2024-03-23T07:24:47;9.90;99.90
44823;DHT22;51097;51.984;5.650;2024-03-23T07:27:12;10.00;99.90
44823;DHT22;51097;51.984;5.650;2024-03-23T07:29:38;10.20;99.90
44823;DHT22;51097;51.984;5.650;2024-03-23T07:32:04;10.30;99.90
44823;DHT22;51097;51.984;5.650;2024-03-23T07:34:29;10.30;99.90
44823;DHT22;51097;51.984;5.650;2024-03-23T07:36:55;10.50;99.90
44823;DHT22;51097;51.984;5.650;2024-03-23T07:39:20;10.50;99.90
44823;DHT22;51097;51.984;5.650;2024-03-23T07:41:46;10.50;99.90
44823;DHT22;51097;51.984;5.650;2024-03-23T07:44:11;10.50;99.90
44823;DHT22;51097;51.984;5.650;2024-03-23T07:46:37;10.60;99.90
44823;DHT22;51097;51.984;5.650;2024-03-23T07:49:04;10.70;99.90
44823;DHT22;51097;51.984;5.650;2024-03-23T07:51:30;10.80;99.90
44823;DHT22;51097;51.984;5.650;2024-03-23T07:53:55;10.80;99.90
44823;DHT22;51097;51.984;5.650;2024-03-23T07:56:21;10.90;99.90
44823;DHT22;51097;51.984;5.650;2024-03-23T07:58:48;11.10;99.90
44823;DHT22;51097;51.984;5.650;2024-03-23T08:01:15;11.20;99.90
44823;DHT22;51097;51.984;5.650;2024-03-23T08:03:42;11.30;99.90
44823;DHT22;51097;51.984;5.650;2024-03-23T08:06:19;11.40;99.90
44823;DHT22;51097;51.984;5.650;2024-03-23T08:08:50;11.40;99.90
44823;DHT22;51097;51.984;5.650;2024-03-23T08:11:16;11.60;99.90
44823;DHT22;51097;51.984;5.650;2024-03-23T08:13:42;11.50;99.90
44823;DHT22;51097;51.984;5.650;2024-03-23T08:16:10;11.70;99.90
44823;DHT22;51097;51.984;5.650;2024-03-23T08:18:39;11.80;99.90
44823;DHT22;51097;51.984;5.650;2024-03-23T08:21:25;12.20;99.90
44823;DHT22;51097;51.984;5.650;2024-03-23T08:27:00;12.40;99.90
44823;DHT22;51097;51.984;5.650;2024-03-23T08:29:25;12.30;99.90
44823;DHT22;51097;51.984;5.650;2024-03-23T08:31:51;12.40;99.90
44823;DHT22;51097;51.984;5.650;2024-03-23T08:34:17;12.50;99.90
44823;DHT22;51097;51.984;5.650;2024-03-23T08:36:42;12.40;99.90
44823;DHT22;51097;51.984;5.650;2024-03-23T08:39:09;12.50;99.90
44823;DHT22;51097;51.984;5.650;2024-03-23T08:41:34;12.40;99.90
44823;DHT22;51097;51.984;5.650;2024-03-23T08:44:00;12.50;99.90
44823;DHT22;51097;51.984;5.650;2024-03-23T08:46:25;12.50;99.90
44823;DHT22;51097;51.984;5.650;2024-03-23T08:48:51;12.70;99.90
44823;DHT22;51097;51.984;5.650;2024-03-23T08:51:18;12.70;99.90
44823;DHT22;51097;51.984;5.650;2024-03-23T08:53:44;12.70;99.90
44823;DHT22;51097;51.984;5.650;2024-03-23T08:56:10;12.70;99.90
44823;DHT22;51097;51.984;5.650;2024-03-23T08:58:37;12.70;99.90
44823;DHT22;51097;51.984;5.650;2024-03-23T09:01:09;12.60;99.90
44823;DHT22;51097;51.984;5.650;2024-03-23T09:03:35;12.60;99.90
44823;DHT22;51097;51.984;5.650;2024-03-23T09:06:06;12.30;99.90
44823;DHT22;51097;51.984;5.650;2024-03-23T09:08:31;11.90;99.90
44823;DHT22;51097;51.984;5.650;2024-03-23T09:10:57;11.70;99.90
44823;DHT22;51097;51.984;5.650;2024-03-23T09:13:22;11.50;99.90
44823;DHT22;51097;51.984;5.650;2024-03-23T09:15:49;11.60;99.90
44823;DHT22;51097;51.984;5.650;2024-03-23T09:18:16;11.30;99.90
44823;DHT22;51097;51.984;5.650;2024-03-23T09:20:41;11.30;99.90
44823;DHT22;51097;51.984;5.650;2024-03-23T09:23:07;11.20;99.90
44823;DHT22;51097;51.984;5.650;2024-03-23T09:25:39;11.20;99.90
44823;DHT22;51097;51.984;5.650;2024-03-23T09:28:08;11.30;99.90
44823;DHT22;51097;51.984;5.650;2024-03-23T09:30:36;11.40;99.90
44823;DHT22;51097;51.984;5.650;2024-03-23T09:33:10;11.50;99.90
44823;DHT22;51097;51.984;5.650;2024-03-23T09:35:37;11.60;99.90
44823;DHT22;51097;51.984;5.650;2024-03-23T09:38:03;11.70;99.90
44823;DHT22;51097;51.984;5.650;2024-03-23T09:40:28;11.80;99.90
44823;DHT22;51097;51.984;5.650;2024-03-23T09:42:54;11.80;99.90
44823;DHT22;51097;51.984;5.650;2024-03-23T09:45:22;12.00;99.90
44823;DHT22;51097;51.984;5.650;2024-03-23T09:47:48;12.10;99.90
44823;DHT22;51097;51.984;5.650;2024-03-23T09:50:14;12.20;99.90
44823;DHT22;51097;51.984;5.650;2024-03-23T09:52:40;12.30;99.90
44823;DHT22;51097;51.984;5.650;2024-03-23T09:55:08;12.10;99.90
44823;DHT22;51097;51.984;5.650;2024-03-23T09:57:34;12.10;99.90
44823;DHT22;51097;51.984;5.650;2024-03-23T09:59:59;12.00;99.90
44823;DHT22;51097;51.984;5.650;2024-03-23T10:02:25;12.20;99.90
44823;DHT22;51097;51.984;5.650;2024-03-23T10:04:51;12.20;99.90
44823;DHT22;51097;51.984;5.650;2024-03-23T10:07:21;12.20;99.90
44823;DHT22;51097;51.984;5.650;2024-03-23T10:09:50;12.50;99.90
44823;DHT22;51097;51.984;5.650;2024-03-23T10:12:19;12.40;99.90
44823;DHT22;51097;51.984;5.650;2024-03-23T10:14:45;12.60;99.90
44823;DHT22;51097;51.984;5.650;2024-03-23T10:17:19;12.70;99.90
44823;DHT22;51097;51.984;5.650;2024-03-23T10:19:49;12.40;99.90
44823;DHT22;51097;51.984;5.650;2024-03-23T10:22:21;12.10;99.90
44823;DHT22;51097;51.984;5.650;2024-03-23T10:24:47;11.90;99.90
44823;DHT22;51097;51.984;5.650;2024-03-23T10:27:18;11.70;99.90
44823;DHT22;51097;51.984;5.650;2024-03-23T10:29:48;11.40;99.90
44823;DHT22;51097;51.984;5.650;2024-03-23T10:32:15;11.40;99.90
44823;DHT22;51097;51.984;5.650;2024-03-23T10:34:41;11.50;99.90
44823;DHT22;51097;51.984;5.650;2024-03-23T10:37:07;11.50;99.90
44823;DHT22;51097;51.984;5.650;2024-03-23T10:39:38;11.40;99.90
44823;DHT22;51097;51.984;5.650;2024-03-23T10:42:04;11.50;99.90
44823;DHT22;51097;51.984;5.650;2024-03-23T10:44:31;11.60;99.90
44823;DHT22;51097;51.984;5.650;2024-03-23T10:47:06;11.70;99.90
44823;DHT22;51097;51.984;5.650;2024-03-23T10:49:33;11.90;99.90
44823;DHT22;51097;51.984;5.650;2024-03-23T10:52:00;12.00;99.90
44823;DHT22;51097;51.984;5.650;2024-03-23T10:54:26;12.30;99.90
44823;DHT22;51097;51.984;5.650;2024-03-23T10:59:40;12.60;99.90
44823;DHT22;51097;51.984;5.650;2024-03-23T11:02:06;12.80;99.90
44823;DHT22;51097;51.984;5.650;2024-03-23T11:04:37;12.70;99.90
44823;DHT22;51097;51.984;5.650;2024-03-23T11:09:52;13.10;99.90
44823;DHT22;51097;51.984;5.650;2024-03-23T11:15:11;13.40;99.90
44823;DHT22;51097;51.984;5.650;2024-03-23T11:17:37;13.50;99.90
44823;DHT22;51097;51.984;5.650;2024-03-23T11:20:03;13.70;99.90
44823;DHT22;51097;51.984;5.650;2024-03-23T11:22:40;13.80;99.90
44823;DHT22;51097;51.984;5.650;2024-03-23T11:25:26;13.80;99.90
44823;DHT22;51097;51.984;5.650;2024-03-23T11:28:10;13.90;99.90
44823;DHT22;51097;51.984;5.650;2024-03-23T11:30:36;13.90;99.90
44823;DHT22;51097;51.984;5.650;2024-03-23T11:33:03;14.00;99.90
44823;DHT22;51097;51.984;5.650;2024-03-23T11:35:39;13.90;99.90
44823;DHT22;51097;51.984;5.650;2024-03-23T11:38:07;13.90;99.90
44823;DHT22;51097;51.984;5.650;2024-03-23T11:40:35;14.00;99.90
44823;DHT22;51097;51.984;5.650;2024-03-23T11:43:04;14.10;99.90
44823;DHT22;51097;51.984;5.650;2024-03-23T11:45:37;14.10;99.90
44823;DHT22;51097;51.984;5.650;2024-03-23T11:48:07;14.10;99.90
44823;DHT22;51097;51.984;5.650;2024-03-23T11:50:34;14.20;99.90
44823;DHT22;51097;51.984;5.650;2024-03-23T11:55:54;14.10;99.90
44823;DHT22;51097;51.984;5.650;2024-03-23T11:58:22;14.00;99.90
44823;DHT22;51097;51.984;5.650;2024-03-23T12:00:56;13.80;99.90
44823;DHT22;51097;51.984;5.650;2024-03-23T12:03:22;13.70;99.90
44823;DHT22;51097;51.984;5.650;2024-03-23T12:05:52;13.60;99.90
44823;DHT22;51097;51.984;5.650;2024-03-23T12:08:45;13.20;99.90
44823;DHT22;51097;51.984;5.650;2024-03-23T12:11:15;13.20;99.90
44823;DHT22;51097;51.984;5.650;2024-03-23T12:13:43;13.20;99.90
44823;DHT22;51097;51.984;5.650;2024-03-23T12:16:13;13.20;99.90
44823;DHT22;51097;51.984;5.650;2024-03-23T12:18:40;13.10;99.90
44823;DHT22;51097;51.984;5.650;2024-03-23T12:21:06;13.50;99.90
44823;DHT22;51097;51.984;5.650;2024-03-23T12:23:32;13.50;99.90
44823;DHT22;51097;51.984;5.650;2024-03-23T12:25:58;13.50;99.90
44823;DHT22;51097;51.984;5.650;2024-03-23T12:28:24;13.60;99.90
44823;DHT22;51097;51.984;5.650;2024-03-23T12:30:51;13.70;99.90
44823;DHT22;51097;51.984;5.650;2024-03-23T12:33:17;14.00;99.90
44823;DHT22;51097;51.984;5.650;2024-03-23T12:35:43;14.20;99.90
44823;DHT22;51097;51.984;5.650;2024-03-23T12:38:08;14.40;99.90
44823;DHT22;51097;51.984;5.650;2024-03-23T12:40:34;14.40;99.90
44823;DHT22;51097;51.984;5.650;2024-03-23T12:43:00;14.40;99.90
44823;DHT22;51097;51.984;5.650;2024-03-23T12:45:25;14.50;99.90
44823;DHT22;51097;51.984;5.650;2024-03-23T12:47:51;14.50;99.90
44823;DHT22;51097;51.984;5.650;2024-03-23T12:50:20;14.50;99.90
44823;DHT22;51097;51.984;5.650;2024-03-23T12:52:46;14.70;99.90
44823;DHT22;51097;51.984;5.650;2024-03-23T12:55:11;14.70;99.90
44823;DHT22;51097;51.984;5.650;2024-03-23T12:57:37;14.70;99.90
44823;DHT22;51097;51.984;5.650;2024-03-23T13:00:03;14.60;99.90
44823;DHT22;51097;51.984;5.650;2024-03-23T13:02:29;14.50;99.90
44823;DHT22;51097;51.984;5.650;2024-03-23T13:04:55;14.50;99.90
44823;DHT22;51097;51.984;5.650;2024-03-23T13:07:22;14.50;99.90
44823;DHT22;51097;51.984;5.650;2024-03-23T13:09:52;14.30;99.90
44823;DHT22;51097;51.984;5.650;2024-03-23T13:12:21;14.20;99.90
44823;DHT22;51097;51.984;5.650;2024-03-23T13:14:47;14.10;99.90
44823;DHT22;51097;51.984;5.650;2024-03-23T13:17:13;13.90;99.90
44823;DHT22;51097;51.984;5.650;2024-03-23T13:19:38;13.70;99.90
44823;DHT22;51097;51.984;5.650;2024-03-23T13:22:04;13.70;99.90
44823;DHT22;51097;51.984;5.650;2024-03-23T13:24:30;13.60;99.90
44823;DHT22;51097;51.984;5.650;2024-03-23T13:26:56;13.90;99.90
44823;DHT22;51097;51.984;5.650;2024-03-23T13:29:23;13.80;99.90
44823;DHT22;51097;51.984;5.650;2024-03-23T13:31:50;13.90;99.90
44823;DHT22;51097;51.984;5.650;2024-03-23T13:34:16;13.70;99.90
44823;DHT22;51097;51.984;5.650;2024-03-23T13:36:46;13.70;99.90
44823;DHT22;51097;51.984;5.650;2024-03-23T13:39:13;13.60;99.90
44823;DHT22;51097;51.984;5.650;2024-03-23T13:41:39;13.60;99.90
44823;DHT22;51097;51.984;5.650;2024-03-23T13:44:09;13.60;99.90
44823;DHT22;51097;51.984;5.650;2024-03-23T13:46:38;13.50;99.90
44823;DHT22;51097;51.984;5.650;2024-03-23T13:49:05;13.30;99.90
44823;DHT22;51097;51.984;5.650;2024-03-23T13:51:31;13.00;99.90
44823;DHT22;51097;51.984;5.650;2024-03-23T13:53:57;12.90;99.90
44823;DHT22;51097;51.984;5.650;2024-03-23T13:56:24;12.80;99.90
44823;DHT22;51097;51.984;5.650;2024-03-23T13:58:50;12.70;99.90
44823;DHT22;51097;51.984;5.650;2024-03-23T14:01:16;12.50;99.90
44823;DHT22;51097;51.984;5.650;2024-03-23T14:03:42;12.50;99.90
44823;DHT22;51097;51.984;5.650;2024-03-23T14:06:08;12.60;99.90
44823;DHT22;51097;51.984;5.650;2024-03-23T14:08:35;12.80;99.90
44823;DHT22;51097;51.984;5.650;2024-03-23T14:11:13;12.90;99.90
44823;DHT22;51097;51.984;5.650;2024-03-23T14:13:39;12.80;99.90
44823;DHT22;51097;51.984;5.650;2024-03-23T14:16:05;12.80;99.90
44823;DHT22;51097;51.984;5.650;2024-03-23T14:18:31;12.80;99.90
44823;DHT22;51097;51.984;5.650;2024-03-23T14:20:58;12.90;99.90
44823;DHT22;51097;51.984;5.650;2024-03-23T14:23:25;12.70;99.90
44823;DHT22;51097;51.984;5.650;2024-03-23T14:25:53;12.40;99.90
44823;DHT22;51097;51.984;5.650;2024-03-23T14:28:19;12.20;99.90
44823;DHT22;51097;51.984;5.650;2024-03-23T14:30:44;12.10;99.90
44823;DHT22;51097;51.984;5.650;2024-03-23T14:33:10;12.00;99.90
44823;DHT22;51097;51.984;5.650;2024-03-23T14:35:36;12.00;99.90
44823;DHT22;51097;51.984;5.650;2024-03-23T14:38:02;12.10;99.90
44823;DHT22;51097;51.984;5.650;2024-03-23T14:40:28;12.20;99.90
44823;DHT22;51097;51.984;5.650;2024-03-23T14:42:54;12.20;99.90
44823;DHT22;51097;51.984;5.650;2024-03-23T14:45:21;12.30;99.90
44823;DHT22;51097;51.984;5.650;2024-03-23T14:47:47;12.40;99.90
44823;DHT22;51097;51.984;5.650;2024-03-23T14:50:13;12.40;99.90
44823;DHT22;51097;51.984;5.650;2024-03-23T14:52:42;12.60;99.90
44823;DHT22;51097;51.984;5.650;2024-03-23T14:55:07;12.70;99.90
44823;DHT22;51097;51.984;5.650;2024-03-23T14:57:34;12.80;99.90
44823;DHT22;51097;51.984;5.650;2024-03-23T15:00:00;12.60;99.90
44823;DHT22;51097;51.984;5.650;2024-03-23T15:02:26;12.60;99.90
44823;DHT22;51097;51.984;5.650;2024-03-23T15:04:53;12.60;99.90
44823;DHT22;51097;51.984;5.650;2024-03-23T15:07:19;12.60;99.90
44823;DHT22;51097;51.984;5.650;2024-03-23T15:09:45;12.60;99.90
44823;DHT22;51097;51.984;5.650;2024-03-23T15:12:10;12.70;99.90
44823;DHT22;51097;51.984;5.650;2024-03-23T15:14:36;12.80;99.90
44823;DHT22;51097;51.984;5.650;2024-03-23T15:17:02;12.90;99.90
44823;DHT22;51097;51.984;5.650;2024-03-23T15:19:32;13.10;99.90
44823;DHT22;51097;51.984;5.650;2024-03-23T15:21:58;13.30;99.90
44823;DHT22;51097;51.984;5.650;2024-03-23T15:24:23;13.50;99.90
44823;DHT22;51097;51.984;5.650;2024-03-23T15:26:49;13.40;99.90
44823;DHT22;51097;51.984;5.650;2024-03-23T15:29:15;13.50;99.90
44823;DHT22;51097;51.984;5.650;2024-03-23T15:31:42;13.50;99.90
44823;DHT22;51097;51.984;5.650;2024-03-23T15:34:08;13.50;99.90
44823;DHT22;51097;51.984;5.650;2024-03-23T15:36:37;13.60;99.90
44823;DHT22;51097;51.984;5.650;2024-03-23T15:39:05;13.40;99.90
44823;DHT22;51097;51.984;5.650;2024-03-23T15:41:32;13.50;99.90
44823;DHT22;51097;51.984;5.650;2024-03-23T15:43:59;13.60;99.90
44823;DHT22;51097;51.984;5.650;2024-03-23T15:46:25;13.60;99.90
44823;DHT22;51097;51.984;5.650;2024-03-23T15:48:50;13.60;99.90
44823;DHT22;51097;51.984;5.650;2024-03-23T15:51:16;13.40;99.90
44823;DHT22;51097;51.984;5.650;2024-03-23T15:53:43;13.60;99.90
44823;DHT22;51097;51.984;5.650;2024-03-23T15:56:09;13.70;99.90
44823;DHT22;51097;51.984;5.650;2024-03-23T15:58:34;13.80;99.90
44823;DHT22;51097;51.984;5.650;2024-03-23T16:01:01;13.90;99.90
44823;DHT22;51097;51.984;5.650;2024-03-23T16:03:28;13.90;99.90
44823;DHT22;51097;51.984;5.650;2024-03-23T16:05:55;13.90;99.90
44823;DHT22;51097;51.984;5.650;2024-03-23T16:08:21;13.80;99.90
44823;DHT22;51097;51.984;5.650;2024-03-23T16:10:50;13.50;99.90
44823;DHT22;51097;51.984;5.650;2024-03-23T16:13:16;13.40;99.90
44823;DHT22;51097;51.984;5.650;2024-03-23T16:15:42;13.20;99.90
44823;DHT22;51097;51.984;5.650;2024-03-23T16:18:08;13.20;99.90
44823;DHT22;51097;51.984;5.650;2024-03-23T16:20:33;13.00;99.90
44823;DHT22;51097;51.984;5.650;2024-03-23T16:23:03;12.90;99.90
44823;DHT22;51097;51.984;5.650;2024-03-23T16:25:29;12.80;99.90
44823;DHT22;51097;51.984;5.650;2024-03-23T16:27:55;12.50;99.90
44823;DHT22;51097;51.984;5.650;2024-03-23T16:30:21;12.70;99.90
44823;DHT22;51097;51.984;5.650;2024-03-23T16:32:47;12.70;99.90
44823;DHT22;51097;51.984;5.650;2024-03-23T16:35:13;12.60;99.90
44823;DHT22;51097;51.984;5.650;2024-03-23T16:37:40;12.50;99.90
44823;DHT22;51097;51.984;5.650;2024-03-23T16:40:06;12.60;99.90